Time;durP1;ratioP1;P1;durP2;ratioP2;P2;SDS_P1;SDS_P2;PMS_P1;PMS_P2;Temp;Humidity;BMP_temperature;BMP_pressure;BME280_temperature;BME280_humidity;BME280_pressure;Samples;Min_cycle;Max_cycle;Signal;HPM_P1;HPM_P2
2023/03/26 00:01:12;;;;;;;0.40;0.40;;;8.40;99.90;;;;;;4378509;32;20082;-74
2023/03/26 00:03:39;;;;;;;0.30;0.30;;;8.40;99.90;;;;;;4379726;32;20115;-75
2023/03/26 00:06:09;;;;;;;0.40;0.40;;;8.40;99.90;;;;;;4379263;32;20122;-75
2023/03/26 00:08:36;;;;;;;0.37;0.37;;;8.40;99.90;;;;;;4377235;32;20307;-76
2023/03/26 00:11:05;;;;;;;0.45;0.45;;;8.40;99.90;;;;;;4375809;32;21266;-74
2023/03/26 00:13:32;;;;;;;0.32;0.32;;;8.40;99.90;;;;;;4377805;32;20137;-76
2023/03/26 00:15:58;;;;;;;0.40;0.40;;;8.40;99.90;;;;;;4377027;32;20082;-76
2023/03/26 00:18:29;;;;;;;0.30;0.30;;;8.40;99.90;;;;;;4376849;32;20502;-76
2023/03/26 00:20:56;;;;;;;0.30;0.30;;;8.40;99.90;;;;;;4377364;32;20639;-75
2023/03/26 00:23:22;;;;;;;0.30;0.30;;;8.40;99.90;;;;;;4376790;32;20098;-75
2023/03/26 00:25:49;;;;;;;0.50;0.50;;;8.40;99.90;;;;;;4374443;32;20078;-75
2023/03/26 00:28:16;;;;;;;0.40;0.40;;;8.40;99.90;;;;;;4378663;32;20151;-75
2023/03/26 00:30:42;;;;;;;0.40;0.40;;;8.50;99.90;;;;;;4377558;32;20193;-75
2023/03/26 00:33:10;;;;;;;2.42;0.50;;;8.50;99.90;;;;;;4377807;32;20091;-75
2023/03/26 00:35:38;;;;;;;0.47;0.47;;;8.50;99.90;;;;;;4375021;32;20519;-75
2023/03/26 00:38:04;;;;;;;0.20;0.20;;;8.50;99.90;;;;;;4377628;32;20066;-74
2023/03/26 00:40:30;;;;;;;0.40;0.40;;;8.50;99.90;;;;;;4358290;32;20142;-74
2023/03/26 00:42:56;;;;;;;0.40;0.40;;;8.50;99.90;;;;;;4378158;32;20070;-75
2023/03/26 00:45:22;;;;;;;0.40;0.40;;;8.40;99.90;;;;;;4377299;32;20141;-75
2023/03/26 00:47:47;;;;;;;0.30;0.30;;;8.40;99.90;;;;;;4378007;32;20079;-75
2023/03/26 00:50:15;;;;;;;0.50;0.50;;;8.40;99.90;;;;;;4364408;32;20090;-74
2023/03/26 00:52:42;;;;;;;0.30;0.30;;;8.40;99.90;;;;;;4378780;32;20079;-75
2023/03/26 00:55:09;;;;;;;0.50;0.50;;;8.40;99.90;;;;;;4377732;32;20510;-75
2023/03/26 00:57:36;;;;;;;0.40;0.40;;;8.40;99.90;;;;;;4376328;32;20062;-75
2023/03/26 01:00:15;;;;;;;0.88;0.60;;;8.40;99.90;;;;;;4375009;32;20415;-75
2023/03/26 01:02:43;;;;;;;0.40;0.40;;;8.40;99.90;;;;;;4376860;32;20138;-74
2023/03/26 01:05:33;;;;;;;0.50;0.50;;;8.40;99.90;;;;;;4377203;32;20547;-74
2023/03/26 01:08:03;;;;;;;0.40;0.40;;;8.40;99.90;;;;;;4363077;32;20086;-74
2023/03/26 01:10:37;;;;;;;0.35;0.35;;;8.40;99.90;;;;;;4375293;32;20125;-74
2023/03/26 01:13:03;;;;;;;0.30;0.30;;;8.40;99.90;;;;;;4376052;32;20082;-75
2023/03/26 01:15:29;;;;;;;0.30;0.30;;;8.30;99.90;;;;;;4374522;32;20071;-75
2023/03/26 01:17:57;;;;;;;1.87;1.27;;;8.30;99.90;;;;;;4375944;32;20074;-74
2023/03/26 01:20:29;;;;;;;0.50;0.50;;;8.30;99.90;;;;;;4362232;32;20595;-75
2023/03/26 01:23:04;;;;;;;0.40;0.40;;;8.20;99.90;;;;;;4375540;32;20122;-74
2023/03/26 01:25:37;;;;;;;0.30;0.30;;;8.20;99.90;;;;;;4376035;32;20078;-74
2023/03/26 01:28:07;;;;;;;0.40;0.40;;;8.10;99.90;;;;;;4375376;32;20126;-74
2023/03/26 01:30:41;;;;;;;9.13;0.70;;;8.00;99.90;;;;;;4375547;32;20144;-74
2023/03/26 01:33:25;;;;;;;0.30;0.30;;;8.00;99.90;;;;;;4374897;32;20663;-74
2023/03/26 01:35:58;;;;;;;0.40;0.40;;;8.00;99.90;;;;;;4374697;32;20193;-74
2023/03/26 01:38:52;;;;;;;0.37;0.37;;;7.90;99.90;;;;;;4373818;32;20502;-74
2023/03/26 01:41:42;;;;;;;0.40;0.40;;;7.90;99.90;;;;;;4363227;32;20070;-74
2023/03/26 01:44:20;;;;;;;0.30;0.30;;;8.00;99.90;;;;;;4359050;32;20095;-74
2023/03/26 01:46:47;;;;;;;0.40;0.40;;;7.90;99.90;;;;;;4372077;32;20079;-74
2023/03/26 01:49:13;;;;;;;0.30;0.30;;;7.90;99.90;;;;;;4377038;32;20440;-74
2023/03/26 01:51:41;;;;;;;0.30;0.30;;;7.90;99.90;;;;;;4375838;32;20097;-74
2023/03/26 01:54:11;;;;;;;0.37;0.37;;;7.90;99.90;;;;;;4376213;32;20070;-74
2023/03/26 01:57:13;;;;;;;0.40;0.40;;;7.90;99.90;;;;;;4377236;32;20091;-74
2023/03/26 02:00:00;;;;;;;0.40;0.40;;;7.90;99.90;;;;;;4366389;32;20058;-74
2023/03/26 02:02:48;;;;;;;0.30;0.30;;;7.80;99.90;;;;;;4366144;32;20175;-74
2023/03/26 02:05:25;;;;;;;0.40;0.40;;;7.80;99.90;;;;;;4376631;32;20118;-74
2023/03/26 02:07:59;;;;;;;0.30;0.30;;;7.80;99.90;;;;;;4372858;32;20133;-74
2023/03/26 02:10:29;;;;;;;0.30;0.30;;;7.80;99.90;;;;;;4372684;32;20436;-74
2023/03/26 02:12:56;;;;;;;0.40;0.40;;;7.70;99.90;;;;;;4376718;32;20074;-75
2023/03/26 02:15:22;;;;;;;0.40;0.40;;;7.60;99.90;;;;;;4376656;32;20071;-75
2023/03/26 02:17:48;;;;;;;0.30;0.30;;;7.60;99.90;;;;;;4375457;32;20118;-74
2023/03/26 02:20:17;;;;;;;0.30;0.30;;;7.50;99.90;;;;;;4378230;32;20590;-75
2023/03/26 02:22:46;;;;;;;0.40;0.40;;;7.50;99.90;;;;;;4374804;32;20216;-74
2023/03/26 02:25:14;;;;;;;1.55;0.60;;;7.50;99.90;;;;;;4375188;32;20450;-73
2023/03/26 02:27:40;;;;;;;0.22;0.22;;;7.50;99.90;;;;;;4375776;32;20114;-75
2023/03/26 02:30:09;;;;;;;0.40;0.40;;;7.50;99.90;;;;;;4374925;32;20113;-75
2023/03/26 02:32:35;;;;;;;0.40;0.40;;;7.50;99.90;;;;;;4373457;32;20078;-73
2023/03/26 02:35:01;;;;;;;0.37;0.37;;;7.50;99.90;;;;;;4374551;32;20577;-75
2023/03/26 02:37:29;;;;;;;0.30;0.30;;;7.50;99.90;;;;;;4376334;32;20074;-75
2023/03/26 02:39:55;;;;;;;0.30;0.30;;;7.50;99.90;;;;;;4374022;32;20122;-75
2023/03/26 02:42:21;;;;;;;0.40;0.40;;;7.50;99.90;;;;;;4374095;32;20093;-74
2023/03/26 02:44:46;;;;;;;0.40;0.40;;;7.50;99.90;;;;;;4374034;32;20102;-75
2023/03/26 02:47:14;;;;;;;0.40;0.40;;;7.50;99.90;;;;;;4372718;32;20464;-75
2023/03/26 02:49:40;;;;;;;0.37;0.37;;;7.50;99.90;;;;;;4374039;32;20150;-75
2023/03/26 02:52:05;;;;;;;0.22;0.22;;;7.60;99.90;;;;;;4373132;32;20082;-75
2023/03/26 02:54:34;;;;;;;0.20;0.20;;;7.60;99.90;;;;;;4369693;32;20078;-75
2023/03/26 02:56:59;;;;;;;0.30;0.30;;;7.60;99.90;;;;;;4360356;32;20511;-73
2023/03/26 02:59:25;;;;;;;0.40;0.40;;;7.60;99.90;;;;;;4376309;32;20091;-75
2023/03/26 03:01:51;;;;;;;0.30;0.30;;;7.60;99.90;;;;;;4375408;32;20424;-75
2023/03/26 03:04:17;;;;;;;0.40;0.40;;;7.60;99.90;;;;;;4373760;32;20099;-75
2023/03/26 03:06:43;;;;;;;0.22;0.22;;;7.70;99.90;;;;;;4376498;32;20066;-76
2023/03/26 03:09:10;;;;;;;0.40;0.40;;;7.60;99.90;;;;;;4374310;32;20150;-75
2023/03/26 03:11:37;;;;;;;0.35;0.30;;;7.70;99.90;;;;;;4374777;32;20703;-75
2023/03/26 03:14:03;;;;;;;0.30;0.30;;;7.70;99.90;;;;;;4375663;32;20074;-75
2023/03/26 03:16:30;;;;;;;0.35;0.35;;;7.70;99.90;;;;;;4361919;32;20111;-76
2023/03/26 03:18:56;;;;;;;0.30;0.30;;;7.70;99.90;;;;;;4372982;32;20090;-75
2023/03/26 03:21:23;;;;;;;0.37;0.37;;;7.60;99.90;;;;;;4370731;32;20078;-74
2023/03/26 03:23:49;;;;;;;0.37;0.37;;;7.60;99.90;;;;;;4371285;32;20451;-75
2023/03/26 03:26:17;;;;;;;0.68;0.32;;;7.70;99.90;;;;;;4373172;32;20090;-75
2023/03/26 03:28:44;;;;;;;0.50;0.50;;;7.70;99.90;;;;;;4370916;32;20349;-75
2023/03/26 03:31:09;;;;;;;0.45;0.45;;;7.70;99.90;;;;;;4374282;32;20103;-75
2023/03/26 03:33:35;;;;;;;0.47;0.47;;;7.70;99.90;;;;;;4374781;32;20062;-75
2023/03/26 03:36:05;;;;;;;1.00;0.75;;;7.70;99.90;;;;;;4376329;32;20128;-76
2023/03/26 03:38:38;;;;;;;0.55;0.55;;;7.70;99.90;;;;;;4376158;32;20141;-75
2023/03/26 03:41:05;;;;;;;0.30;0.30;;;7.70;99.90;;;;;;4374489;32;20107;-75
2023/03/26 03:43:32;;;;;;;0.30;0.30;;;7.70;99.90;;;;;;4374357;32;20177;-75
2023/03/26 03:45:58;;;;;;;0.30;0.30;;;7.60;99.90;;;;;;4376474;32;20098;-74
2023/03/26 03:48:24;;;;;;;0.50;0.50;;;7.70;99.90;;;;;;4359301;32;20559;-75
2023/03/26 03:50:50;;;;;;;2.33;0.50;;;7.70;99.90;;;;;;4376017;32;20087;-75
2023/03/26 03:53:17;;;;;;;0.70;0.70;;;7.70;99.90;;;;;;4378075;32;20082;-75
2023/03/26 03:55:51;;;;;;;0.50;0.50;;;7.70;99.90;;;;;;4377499;32;20527;-75
2023/03/26 03:58:20;;;;;;;0.50;0.50;;;7.70;99.90;;;;;;4375901;32;20428;-75
2023/03/26 04:00:48;;;;;;;0.30;0.30;;;7.70;99.90;;;;;;4376578;32;20102;-76
2023/03/26 04:03:14;;;;;;;0.30;0.30;;;7.80;99.90;;;;;;4379359;32;20067;-75
2023/03/26 04:05:40;;;;;;;1.17;0.70;;;7.80;99.90;;;;;;4379492;32;20534;-76
2023/03/26 04:08:06;;;;;;;1.55;1.15;;;7.80;99.90;;;;;;4377010;32;20175;-75
2023/03/26 04:10:32;;;;;;;0.40;0.40;;;7.80;99.90;;;;;;4378432;32;20130;-75
2023/03/26 04:12:57;;;;;;;1.05;1.05;;;7.80;99.90;;;;;;4375797;32;20086;-75
2023/03/26 04:15:24;;;;;;;0.30;0.30;;;7.70;99.90;;;;;;4377690;32;20174;-75
2023/03/26 04:17:50;;;;;;;0.40;0.40;;;7.70;99.90;;;;;;4376248;32;20096;-75
2023/03/26 04:20:18;;;;;;;0.40;0.40;;;7.70;99.90;;;;;;4377354;32;20094;-75
2023/03/26 04:22:44;;;;;;;0.40;0.40;;;7.60;99.90;;;;;;4375460;32;20087;-76
2023/03/26 04:25:12;;;;;;;0.30;0.30;;;7.70;99.90;;;;;;4376184;32;20459;-75
2023/03/26 04:27:40;;;;;;;0.30;0.30;;;7.70;99.90;;;;;;4379270;32;20593;-75
2023/03/26 04:30:07;;;;;;;0.68;0.68;;;7.70;99.90;;;;;;4377313;32;20529;-75
2023/03/26 04:32:34;;;;;;;0.30;0.30;;;7.60;99.90;;;;;;4376476;32;20074;-75
2023/03/26 04:35:02;;;;;;;0.30;0.30;;;7.60;99.90;;;;;;4377549;32;20122;-75
2023/03/26 04:37:38;;;;;;;0.30;0.30;;;7.60;99.90;;;;;;4378529;32;20091;-75
2023/03/26 04:40:08;;;;;;;0.35;0.35;;;7.60;99.90;;;;;;4375688;32;20079;-75
2023/03/26 04:42:34;;;;;;;0.95;0.65;;;7.60;99.90;;;;;;4374814;32;20161;-75
2023/03/26 04:45:01;;;;;;;2.65;1.48;;;7.70;99.90;;;;;;4376054;32;20285;-75
2023/03/26 04:47:27;;;;;;;0.45;0.45;;;7.70;99.90;;;;;;4376232;32;20074;-75
2023/03/26 04:49:54;;;;;;;0.30;0.30;;;7.70;99.90;;;;;;4376957;32;20083;-75
2023/03/26 04:52:19;;;;;;;0.60;0.60;;;7.70;99.90;;;;;;4375797;32;20070;-75
2023/03/26 04:54:45;;;;;;;0.40;0.40;;;7.70;99.90;;;;;;4375669;32;20083;-75
2023/03/26 04:57:17;;;;;;;0.30;0.30;;;7.70;99.90;;;;;;4376220;32;20121;-75
2023/03/26 04:59:43;;;;;;;1.98;0.65;;;7.70;99.90;;;;;;4375820;32;20564;-75
2023/03/26 05:02:11;;;;;;;0.40;0.40;;;7.70;99.90;;;;;;4363630;32;20094;-75
2023/03/26 05:04:42;;;;;;;0.52;0.52;;;7.70;99.90;;;;;;4376677;32;20086;-75
2023/03/26 05:07:10;;;;;;;0.32;0.32;;;7.70;99.90;;;;;;4376510;32;20098;-75
2023/03/26 05:09:35;;;;;;;0.30;0.30;;;7.70;99.90;;;;;;4376050;32;20082;-76
2023/03/26 05:12:01;;;;;;;0.32;0.32;;;7.70;99.90;;;;;;4377009;32;20102;-75
2023/03/26 05:14:26;;;;;;;0.65;0.65;;;7.70;99.90;;;;;;4375628;32;20802;-74
2023/03/26 05:16:52;;;;;;;0.30;0.30;;;7.70;99.90;;;;;;4376058;32;20094;-74
2023/03/26 05:19:17;;;;;;;1.00;0.68;;;7.70;99.90;;;;;;4375848;32;20547;-74
2023/03/26 05:21:43;;;;;;;0.30;0.30;;;7.70;99.90;;;;;;4376485;32;20460;-74
2023/03/26 05:24:09;;;;;;;0.30;0.30;;;7.70;99.90;;;;;;4372983;32;20066;-74
2023/03/26 05:26:35;;;;;;;0.50;0.50;;;7.80;99.90;;;;;;4364234;32;20098;-74
2023/03/26 05:29:02;;;;;;;0.40;0.40;;;7.80;99.90;;;;;;4375859;32;20078;-74
2023/03/26 05:31:30;;;;;;;2.53;0.80;;;7.80;99.90;;;;;;4376892;32;20151;-74
2023/03/26 05:33:56;;;;;;;0.30;0.30;;;7.80;99.90;;;;;;4377551;32;20082;-75
2023/03/26 05:36:23;;;;;;;0.30;0.30;;;7.80;99.90;;;;;;4375794;32;20106;-74
2023/03/26 05:38:51;;;;;;;2.50;1.30;;;7.80;99.90;;;;;;4372471;32;20083;-74
2023/03/26 05:41:17;;;;;;;0.40;0.40;;;7.90;99.90;;;;;;4373890;32;20079;-75
2023/03/26 05:43:46;;;;;;;0.40;0.40;;;7.80;99.90;;;;;;4376694;32;20138;-74
2023/03/26 05:46:12;;;;;;;0.30;0.30;;;7.80;99.90;;;;;;4373274;32;21143;-74
2023/03/26 05:48:38;;;;;;;0.30;0.30;;;7.80;99.90;;;;;;4375684;32;20134;-75
2023/03/26 05:51:04;;;;;;;0.30;0.30;;;7.80;99.90;;;;;;4376103;32;20641;-75
2023/03/26 05:53:31;;;;;;;4.47;1.65;;;7.90;99.90;;;;;;4376460;32;20086;-75
2023/03/26 05:55:57;;;;;;;0.30;0.30;;;7.90;99.90;;;;;;4375323;32;20170;-75
2023/03/26 05:58:25;;;;;;;0.30;0.30;;;8.00;99.90;;;;;;4373991;32;20498;-75
2023/03/26 06:01:04;;;;;;;0.20;0.20;;;8.00;99.90;;;;;;4374120;32;20070;-75
2023/03/26 06:03:30;;;;;;;1.12;1.02;;;8.00;99.90;;;;;;4377948;32;20082;-74
2023/03/26 06:05:58;;;;;;;0.40;0.40;;;8.00;99.90;;;;;;4374303;32;20075;-74
2023/03/26 06:08:23;;;;;;;0.40;0.40;;;7.90;99.90;;;;;;4375920;32;20137;-75
2023/03/26 06:10:50;;;;;;;0.30;0.30;;;8.00;99.90;;;;;;4374527;32;20169;-75
2023/03/26 06:13:16;;;;;;;0.30;0.30;;;8.00;99.90;;;;;;4377496;32;20082;-74
2023/03/26 06:15:42;;;;;;;0.40;0.40;;;7.90;99.90;;;;;;4376635;32;20119;-76
2023/03/26 06:18:08;;;;;;;0.30;0.30;;;8.00;99.90;;;;;;4374335;32;20112;-76
2023/03/26 06:20:33;;;;;;;1.60;1.15;;;8.00;99.90;;;;;;4376503;32;20078;-75
2023/03/26 06:23:01;;;;;;;0.30;0.30;;;8.00;99.90;;;;;;4378059;32;20090;-74
2023/03/26 06:25:27;;;;;;;1.55;1.35;;;8.10;99.90;;;;;;4375289;32;20070;-74
2023/03/26 06:27:53;;;;;;;0.40;0.40;;;8.00;99.90;;;;;;4374799;32;20514;-74
2023/03/26 06:30:18;;;;;;;0.30;0.30;;;8.10;99.90;;;;;;4376737;32;20113;-74
2023/03/26 06:32:45;;;;;;;0.30;0.30;;;8.00;99.90;;;;;;4376633;32;20106;-74
2023/03/26 06:35:10;;;;;;;0.40;0.40;;;8.00;99.90;;;;;;4372783;32;20530;-76
2023/03/26 06:37:36;;;;;;;0.30;0.30;;;7.90;99.90;;;;;;4375474;32;20063;-74
2023/03/26 06:40:03;;;;;;;0.57;0.57;;;8.00;99.90;;;;;;4376880;32;20090;-74
2023/03/26 06:42:28;;;;;;;0.40;0.40;;;8.00;99.90;;;;;;4374174;32;20467;-74
2023/03/26 06:44:54;;;;;;;0.30;0.30;;;8.00;99.90;;;;;;4374988;32;20216;-74
2023/03/26 06:47:20;;;;;;;3.00;0.82;;;7.90;99.90;;;;;;4374783;32;20071;-73
2023/03/26 06:49:46;;;;;;;0.40;0.40;;;8.00;99.90;;;;;;4376294;32;20067;-75
2023/03/26 06:52:12;;;;;;;0.40;0.40;;;8.10;99.90;;;;;;4375539;32;20078;-75
2023/03/26 06:54:37;;;;;;;0.30;0.30;;;8.10;99.90;;;;;;4376017;32;20138;-75
2023/03/26 06:57:04;;;;;;;0.52;0.52;;;8.10;99.90;;;;;;4375249;32;20074;-74
2023/03/26 06:59:29;;;;;;;0.30;0.30;;;8.10;99.90;;;;;;4374590;32;20086;-74
2023/03/26 07:01:55;;;;;;;0.37;0.37;;;8.10;99.90;;;;;;4374287;32;20078;-74
2023/03/26 07:04:20;;;;;;;0.43;0.43;;;8.20;99.90;;;;;;4373955;32;21172;-74
2023/03/26 07:06:46;;;;;;;0.45;0.45;;;8.20;99.90;;;;;;4375844;32;20083;-75
2023/03/26 07:09:11;;;;;;;0.32;0.32;;;8.20;99.90;;;;;;4378926;32;20159;-75
2023/03/26 07:11:37;;;;;;;0.30;0.30;;;8.30;99.90;;;;;;4378098;32;20125;-75
2023/03/26 07:14:02;;;;;;;0.30;0.30;;;8.40;99.90;;;;;;4379397;32;21150;-74
2023/03/26 07:16:28;;;;;;;6.82;0.77;;;8.40;99.90;;;;;;4377408;32;20524;-74
2023/03/26 07:18:54;;;;;;;0.45;0.45;;;8.40;99.90;;;;;;4377364;32;20071;-74
2023/03/26 07:21:21;;;;;;;0.30;0.30;;;8.50;99.90;;;;;;4377010;32;20070;-74
2023/03/26 07:23:47;;;;;;;0.30;0.30;;;8.40;99.90;;;;;;4377044;32;20099;-74
2023/03/26 07:26:24;;;;;;;0.30;0.30;;;8.50;99.90;;;;;;4375479;32;20129;-74
2023/03/26 07:29:00;;;;;;;2.62;1.23;;;8.50;99.90;;;;;;4363947;32;20428;-75
2023/03/26 07:31:35;;;;;;;4.55;0.82;;;8.60;99.90;;;;;;4378051;32;20082;-74
2023/03/26 07:34:25;;;;;;;0.40;0.40;;;8.50;99.90;;;;;;4377191;32;20416;-74
2023/03/26 07:37:01;;;;;;;0.37;0.37;;;8.60;99.90;;;;;;4363535;32;20082;-74
2023/03/26 07:39:41;;;;;;;1.27;0.88;;;8.60;99.90;;;;;;4374632;32;20122;-74
2023/03/26 07:42:30;;;;;;;0.57;0.57;;;8.60;99.90;;;;;;4377743;32;20085;-74
2023/03/26 07:45:18;;;;;;;0.30;0.30;;;8.60;99.90;;;;;;4375989;32;20086;-74
2023/03/26 07:47:45;;;;;;;0.30;0.30;;;8.60;99.90;;;;;;4375771;32;20482;-73
2023/03/26 07:50:16;;;;;;;0.40;0.40;;;8.50;99.90;;;;;;4377232;32;20066;-74
2023/03/26 07:52:42;;;;;;;2.30;0.50;;;8.50;99.90;;;;;;4378177;32;20440;-74
2023/03/26 07:55:13;;;;;;;0.50;0.50;;;8.50;99.90;;;;;;4378590;32;20078;-75
2023/03/26 07:58:05;;;;;;;1.02;1.02;;;8.50;99.90;;;;;;4377818;32;20543;-76
2023/03/26 08:00:40;;;;;;;0.30;0.30;;;8.50;99.90;;;;;;4365487;32;20098;-75
2023/03/26 08:03:18;;;;;;;0.40;0.40;;;8.50;99.90;;;;;;4363940;32;20076;-75
2023/03/26 08:06:13;;;;;;;0.30;0.30;;;8.50;99.90;;;;;;4363615;32;20070;-75
2023/03/26 08:09:07;;;;;;;1.42;0.70;;;8.50;99.90;;;;;;4365821;32;20438;-76
2023/03/26 08:11:57;;;;;;;0.37;0.37;;;8.50;99.90;;;;;;4364221;32;20074;-75
2023/03/26 08:14:49;;;;;;;0.30;0.30;;;8.60;99.90;;;;;;4363723;32;20083;-75
2023/03/26 08:17:36;;;;;;;5.40;0.75;;;8.70;99.90;;;;;;4367272;32;20590;-75
2023/03/26 08:20:40;;;;;;;0.40;0.40;;;8.70;99.90;;;;;;4366077;32;20083;-75
2023/03/26 08:23:22;;;;;;;0.30;0.30;;;8.70;99.90;;;;;;4363935;32;20476;-75
2023/03/26 08:25:58;;;;;;;0.35;0.35;;;8.70;99.90;;;;;;4376576;32;20122;-75
2023/03/26 08:28:44;;;;;;;0.40;0.40;;;8.60;99.90;;;;;;4378757;32;20062;-74
2023/03/26 08:31:12;;;;;;;0.40;0.40;;;8.70;99.90;;;;;;4378707;32;20157;-74
2023/03/26 08:33:39;;;;;;;0.70;0.50;;;8.90;99.90;;;;;;4373639;32;20124;-74
2023/03/26 08:36:06;;;;;;;0.60;0.60;;;8.80;99.90;;;;;;4375448;32;20789;-74
2023/03/26 08:38:31;;;;;;;11.88;1.05;;;8.70;99.90;;;;;;4373724;32;20087;-74
2023/03/26 08:41:23;;;;;;;0.60;0.60;;;8.80;99.90;;;;;;4371296;32;20776;-75
2023/03/26 08:44:12;;;;;;;3.25;1.15;;;8.80;99.90;;;;;;4372412;32;20106;-74
2023/03/26 08:47:09;;;;;;;0.40;0.40;;;9.00;99.90;;;;;;4361980;32;20106;-75
2023/03/26 08:49:40;;;;;;;1.67;0.70;;;9.10;99.90;;;;;;4363419;32;20090;-74
2023/03/26 08:52:32;;;;;;;0.57;0.57;;;9.10;99.90;;;;;;4363363;32;20106;-74
2023/03/26 08:55:26;;;;;;;0.30;0.30;;;9.10;99.90;;;;;;4358698;32;20621;-74
2023/03/26 08:58:24;;;;;;;0.32;0.32;;;9.30;99.90;;;;;;4366895;32;20066;-75
2023/03/26 09:01:20;;;;;;;0.40;0.40;;;9.50;99.90;;;;;;4366281;32;20063;-74
2023/03/26 09:04:14;;;;;;;0.30;0.30;;;9.40;99.90;;;;;;4364253;32;20562;-74
2023/03/26 09:07:00;;;;;;;0.28;0.28;;;9.30;99.90;;;;;;4363072;32;20082;-75
2023/03/26 09:09:40;;;;;;;0.30;0.30;;;9.20;99.90;;;;;;4373469;32;20169;-75
2023/03/26 09:12:32;;;;;;;1.93;1.37;;;9.30;99.90;;;;;;4365807;32;20097;-75
2023/03/26 09:15:26;;;;;;;0.30;0.30;;;9.50;99.90;;;;;;4375822;32;21079;-75
2023/03/26 09:18:16;;;;;;;0.60;0.55;;;9.50;99.90;;;;;;4352393;32;20083;-74
2023/03/26 09:21:09;;;;;;;0.40;0.40;;;9.40;99.90;;;;;;4351978;32;20078;-74
2023/03/26 09:23:37;;;;;;;0.30;0.30;;;9.40;99.90;;;;;;4365251;32;20083;-74
2023/03/26 09:26:16;;;;;;;0.30;0.30;;;9.40;99.90;;;;;;4361266;32;20089;-74
2023/03/26 09:29:22;;;;;;;0.30;0.30;;;9.40;99.90;;;;;;4375882;32;20142;-75
2023/03/26 09:32:16;;;;;;;0.50;0.50;;;9.40;99.90;;;;;;4365191;32;20091;-75
2023/03/26 09:35:21;;;;;;;0.57;0.57;;;9.60;99.90;;;;;;4363740;32;20099;-74
2023/03/26 09:38:16;;;;;;;1.65;0.80;;;9.80;99.90;;;;;;4365626;32;20093;-75
2023/03/26 09:40:54;;;;;;;0.47;0.47;;;9.80;99.90;;;;;;4366694;32;20090;-74
2023/03/26 09:43:42;;;;;;;0.43;0.43;;;9.70;99.90;;;;;;4375572;32;20090;-75
2023/03/26 09:46:35;;;;;;;0.37;0.37;;;9.60;99.90;;;;;;4362797;32;20544;-74
2023/03/26 09:49:26;;;;;;;0.40;0.40;;;9.60;99.90;;;;;;4360775;32;20102;-74
2023/03/26 09:52:15;;;;;;;0.30;0.30;;;9.70;99.90;;;;;;4374882;32;20099;-75
2023/03/26 09:55:19;;;;;;;0.62;0.62;;;9.90;99.90;;;;;;4363824;32;20066;-75
2023/03/26 09:57:57;;;;;;;1.77;0.77;;;10.00;99.90;;;;;;4361605;32;20078;-75
2023/03/26 10:00:48;;;;;;;13.82;0.52;;;10.10;99.90;;;;;;4374816;32;20145;-75
2023/03/26 10:03:48;;;;;;;4.57;1.55;;;10.20;99.90;;;;;;4365839;32;20183;-75
2023/03/26 10:06:36;;;;;;;0.30;0.30;;;10.20;99.90;;;;;;4362637;32;20108;-75
2023/03/26 10:09:22;;;;;;;1.10;0.82;;;10.10;99.90;;;;;;4364083;32;20095;-75
2023/03/26 10:12:28;;;;;;;0.62;0.62;;;10.10;99.90;;;;;;4364126;32;21110;-74
2023/03/26 10:15:17;;;;;;;9.57;1.85;;;10.20;99.90;;;;;;4363884;32;20104;-74
2023/03/26 10:18:03;;;;;;;1.65;1.25;;;10.30;99.90;;;;;;4349619;32;20581;-74
2023/03/26 10:20:54;;;;;;;0.50;0.50;;;10.30;99.90;;;;;;4376040;32;20547;-74
2023/03/26 10:23:53;;;;;;;0.40;0.40;;;10.20;99.90;;;;;;4365215;32;20070;-74
2023/03/26 10:26:50;;;;;;;0.40;0.40;;;10.20;99.90;;;;;;4348520;32;20086;-75
2023/03/26 10:29:44;;;;;;;2.53;0.85;;;10.20;99.90;;;;;;4348268;32;20603;-74
2023/03/26 10:32:28;;;;;;;1.45;1.02;;;10.40;99.90;;;;;;4361479;32;20074;-74
2023/03/26 10:35:05;;;;;;;0.50;0.50;;;10.40;99.90;;;;;;4375408;32;20102;-75
2023/03/26 10:37:48;;;;;;;0.37;0.37;;;10.40;99.90;;;;;;4374440;32;20074;-74
2023/03/26 10:40:19;;;;;;;0.45;0.45;;;10.50;99.90;;;;;;4374580;32;20774;-74
2023/03/26 10:43:13;;;;;;;0.40;0.40;;;10.50;99.90;;;;;;4363498;32;20083;-74
2023/03/26 10:45:54;;;;;;;5.32;1.02;;;10.60;99.90;;;;;;4363166;32;20201;-75
2023/03/26 10:48:34;;;;;;;0.37;0.37;;;10.60;99.90;;;;;;4345846;32;20111;-75
2023/03/26 10:51:25;;;;;;;0.50;0.50;;;10.40;99.90;;;;;;4379049;32;20515;-74
2023/03/26 10:54:01;;;;;;;23.77;4.07;;;10.40;99.90;;;;;;4367082;32;20566;-74
2023/03/26 10:56:34;;;;;;;0.30;0.30;;;10.50;99.90;;;;;;4376523;32;20070;-74
2023/03/26 10:59:07;;;;;;;0.28;0.28;;;10.60;99.90;;;;;;4364220;32;20137;-75
2023/03/26 11:01:50;;;;;;;0.93;0.57;;;10.70;99.90;;;;;;4378499;32;20544;-76
2023/03/26 11:04:36;;;;;;;0.30;0.30;;;10.70;99.90;;;;;;4364624;32;20082;-74
2023/03/26 11:07:29;;;;;;;14.27;0.70;;;10.70;99.90;;;;;;4378049;32;20531;-76
2023/03/26 11:10:04;;;;;;;0.20;0.20;;;10.70;99.90;;;;;;4367056;32;20095;-75
2023/03/26 11:12:40;;;;;;;0.30;0.30;;;10.70;99.90;;;;;;4379722;32;20626;-75
2023/03/26 11:15:29;;;;;;;1.48;0.60;;;10.70;99.90;;;;;;4375417;32;20225;-75
2023/03/26 11:18:10;;;;;;;0.50;0.50;;;10.60;99.90;;;;;;4365212;32;20067;-75
2023/03/26 11:20:38;;;;;;;;;;;10.60;99.90;;;;;;4378826;32;20104;-75
2023/03/26 11:23:26;;;;;;;0.30;0.30;;;10.60;99.90;;;;;;4378247;32;19977;-75
2023/03/26 11:26:03;;;;;;;0.25;0.25;;;10.60;99.90;;;;;;4352294;32;20086;-75
2023/03/26 11:28:51;;;;;;;0.40;0.40;;;10.60;99.90;;;;;;4361349;32;20214;-76
2023/03/26 11:31:38;;;;;;;1.45;0.52;;;10.50;99.90;;;;;;4354036;32;20066;-76
2023/03/26 11:34:12;;;;;;;0.60;0.60;;;10.50;99.90;;;;;;4378473;32;20130;-75
2023/03/26 11:36:42;;;;;;;0.37;0.37;;;10.50;99.90;;;;;;4376600;32;20118;-75
2023/03/26 11:39:14;;;;;;;0.35;0.35;;;10.50;99.90;;;;;;4377246;32;20091;-75
2023/03/26 11:41:40;;;;;;;0.30;0.30;;;10.60;99.90;;;;;;4375269;32;20075;-75
2023/03/26 11:44:20;;;;;;;1.95;0.65;;;10.70;99.90;;;;;;4374349;32;102589;-75
2023/03/26 11:46:49;;;;;;;0.30;0.30;;;10.70;99.90;;;;;;4378978;32;20074;-76
2023/03/26 11:49:18;;;;;;;0.50;0.50;;;10.80;99.90;;;;;;4375326;32;20420;-75
2023/03/26 11:51:47;;;;;;;2.72;0.70;;;10.80;99.90;;;;;;4378118;32;20083;-75
2023/03/26 11:54:14;;;;;;;0.70;0.70;;;10.80;99.90;;;;;;4375134;32;20101;-76
2023/03/26 11:57:00;;;;;;;4.03;1.05;;;10.80;99.90;;;;;;4376203;32;20074;-76
2023/03/26 11:59:31;;;;;;;0.30;0.30;;;10.90;99.90;;;;;;4377385;32;20081;-75
2023/03/26 12:02:15;;;;;;;0.30;0.30;;;11.00;99.90;;;;;;4379580;32;20165;-75
2023/03/26 12:04:44;;;;;;;0.35;0.35;;;10.90;99.90;;;;;;4377535;32;20162;-75
2023/03/26 12:07:17;;;;;;;0.40;0.40;;;10.90;99.90;;;;;;4377498;32;20142;-75
2023/03/26 12:09:50;;;;;;;0.30;0.30;;;11.00;99.90;;;;;;4376300;32;20090;-75
2023/03/26 12:12:17;;;;;;;0.55;0.35;;;11.00;99.90;;;;;;4375415;32;20157;-75
2023/03/26 12:14:43;;;;;;;0.32;0.32;;;11.30;99.90;;;;;;4378364;32;20811;-75
2023/03/26 12:17:23;;;;;;;0.47;0.47;;;11.50;99.90;;;;;;4360494;32;20094;-75
2023/03/26 12:19:48;;;;;;;0.40;0.40;;;11.60;99.90;;;;;;4377023;32;20067;-75
2023/03/26 12:22:36;;;;;;;0.60;0.60;;;11.90;99.90;;;;;;4377022;32;20513;-74
2023/03/26 12:25:15;;;;;;;0.30;0.30;;;12.30;99.90;;;;;;4363106;32;20055;-75
2023/03/26 12:27:46;;;;;;;0.30;0.30;;;12.50;99.90;;;;;;4344618;32;20901;-75
2023/03/26 12:30:24;;;;;;;0.40;0.40;;;12.80;99.90;;;;;;4375392;32;20062;-75
2023/03/26 12:32:52;;;;;;;0.50;0.50;;;13.10;99.90;;;;;;4361587;32;20118;-75
2023/03/26 12:35:24;;;;;;;0.40;0.40;;;13.30;99.90;;;;;;4375150;32;20163;-75
2023/03/26 12:37:51;;;;;;;6.22;0.40;;;13.20;99.90;;;;;;4377074;32;20071;-75
2023/03/26 12:40:26;;;;;;;0.40;0.40;;;12.90;99.90;;;;;;4375951;32;20082;-75
2023/03/26 12:42:56;;;;;;;0.30;0.30;;;12.60;99.90;;;;;;4361229;32;20094;-75
2023/03/26 12:45:28;;;;;;;0.40;0.40;;;12.40;99.90;;;;;;4363131;32;20131;-75
2023/03/26 12:47:54;;;;;;;0.40;0.40;;;12.60;99.90;;;;;;4376725;32;20098;-75
2023/03/26 12:50:25;;;;;;;0.30;0.30;;;13.30;99.90;;;;;;4375305;32;20061;-76
2023/03/26 12:53:18;;;;;;;0.40;0.40;;;13.90;99.90;;;;;;4374373;32;20583;-75
2023/03/26 12:55:55;;;;;;;1.00;0.93;;;14.00;99.90;;;;;;4364385;32;20078;-75
2023/03/26 12:58:56;;;;;;;0.40;0.40;;;13.40;99.90;;;;;;4359406;32;20086;-75
2023/03/26 13:01:29;;;;;;;0.50;0.50;;;12.90;99.90;;;;;;4365973;32;20475;-75
2023/03/26 13:04:11;;;;;;;0.40;0.40;;;12.70;99.90;;;;;;4361878;32;20103;-75
2023/03/26 13:06:43;;;;;;;0.20;0.20;;;12.60;99.90;;;;;;4375543;32;20083;-75
2023/03/26 13:09:21;;;;;;;0.75;0.73;;;12.50;99.90;;;;;;4362142;32;20104;-75
2023/03/26 13:12:14;;;;;;;0.30;0.30;;;12.80;99.90;;;;;;4371044;32;20122;-75
2023/03/26 13:14:51;;;;;;;0.32;0.32;;;12.90;99.90;;;;;;4359626;32;20594;-75
2023/03/26 13:17:22;;;;;;;0.73;0.45;;;12.50;99.90;;;;;;4377278;32;20087;-75
2023/03/26 13:20:15;;;;;;;0.30;0.30;;;12.50;99.90;;;;;;4374748;32;20089;-75
2023/03/26 13:22:56;;;;;;;0.30;0.30;;;12.50;99.90;;;;;;4363721;32;20146;-75
2023/03/26 13:25:32;;;;;;;0.62;0.60;;;12.60;99.90;;;;;;4372227;32;20110;-74
2023/03/26 13:28:20;;;;;;;0.40;0.40;;;12.60;99.90;;;;;;4373218;32;20065;-74
2023/03/26 13:31:12;;;;;;;0.30;0.30;;;12.80;99.90;;;;;;4375381;32;20114;-74